createdAt,value
2018-09-29T00:00:56.655Z,1.30
2018-09-29T00:05:40.549Z,1.73
2018-09-29T00:10:23.514Z,1.60
2018-09-29T00:15:07.260Z,1.40
2018-09-29T00:19:50.136Z,1.80
2018-09-29T00:24:33.131Z,1.20
2018-09-29T00:29:16.070Z,1.20
2018-09-29T00:33:59.165Z,1.30
2018-09-29T00:38:42.044Z,1.70
2018-09-29T00:43:24.976Z,1.07
2018-09-29T00:48:08.071Z,1.27
2018-09-29T00:52:51.014Z,1.33
2018-09-29T00:57:34.019Z,1.10
2018-09-29T01:02:16.853Z,1.20
2018-09-29T01:06:59.790Z,4.63
2018-09-29T01:11:42.682Z,1.43
2018-09-29T01:16:25.593Z,1.17
2018-09-29T01:21:09.925Z,1.20
2018-09-29T01:25:52.857Z,1.20
2018-09-29T01:30:35.720Z,1.10
2018-09-29T01:35:18.653Z,1.37
2018-09-29T01:40:01.518Z,1.30
2018-09-29T01:44:44.443Z,1.80
2018-09-29T01:49:27.415Z,1.40
2018-09-29T01:54:10.414Z,1.70
2018-09-29T01:58:53.286Z,1.70
2018-09-29T02:03:36.179Z,1.50
2018-09-29T02:08:19.027Z,1.90
2018-09-29T02:13:02.141Z,1.23
2018-09-29T02:17:45.112Z,1.73
2018-09-29T02:22:27.981Z,1.63
2018-09-29T02:27:10.909Z,1.80
2018-09-29T02:31:53.749Z,1.80
2018-09-29T02:36:36.623Z,1.63
2018-09-29T02:41:19.466Z,1.50
2018-09-29T02:46:02.378Z,1.10
2018-09-29T02:50:45.275Z,1.50
2018-09-29T02:55:29.203Z,1.63
2018-09-29T03:00:12.047Z,1.60
2018-09-29T03:04:54.930Z,2.00
2018-09-29T03:09:37.769Z,1.87
2018-09-29T03:14:20.707Z,1.67
2018-09-29T03:20:32.946Z,1.97
2018-09-29T03:25:16.872Z,2.00
2018-09-29T03:29:59.741Z,2.63
2018-09-29T03:34:43.014Z,2.67
2018-09-29T03:39:25.845Z,2.23
2018-09-29T03:44:09.594Z,2.50
2018-09-29T03:48:52.446Z,2.33
2018-09-29T03:53:35.574Z,2.80
2018-09-29T03:58:18.380Z,2.80
2018-09-29T04:03:01.231Z,2.57
2018-09-29T04:07:44.081Z,2.53
2018-09-29T04:12:26.912Z,3.40
2018-09-29T04:17:09.854Z,3.80
2018-09-29T04:21:52.713Z,3.17
2018-09-29T04:26:35.610Z,3.37
2018-09-29T04:31:18.473Z,3.40
2018-09-29T04:36:01.425Z,3.33
2018-09-29T04:40:44.322Z,3.70
2018-09-29T04:45:28.178Z,3.17
2018-09-29T04:50:11.001Z,3.27
2018-09-29T04:54:53.910Z,3.43
2018-09-29T04:59:36.757Z,3.27
2018-09-29T05:04:20.100Z,4.73
2018-09-29T05:09:03.135Z,4.73
2018-09-29T05:13:46.221Z,3.93
2018-09-29T05:18:29.110Z,3.90
2018-09-29T05:23:12.066Z,5.27
2018-09-29T05:27:54.897Z,4.80
2018-09-29T05:32:37.731Z,5.93
2018-09-29T05:37:20.629Z,6.23
2018-09-29T05:42:03.464Z,5.50
2018-09-29T05:46:50.232Z,5.50
2018-09-29T05:51:33.109Z,5.23
2018-09-29T05:56:16.028Z,4.57
2018-09-29T06:00:58.855Z,4.27
2018-09-29T06:05:41.779Z,4.17
2018-09-29T06:10:24.662Z,4.13
2018-09-29T06:15:07.586Z,3.53
2018-09-29T06:19:50.441Z,3.47
2018-09-29T06:24:33.362Z,2.77
2018-09-29T06:29:16.254Z,3.20
2018-09-29T06:34:00.791Z,2.63
2018-09-29T06:38:43.652Z,3.37
2018-09-29T06:43:26.662Z,3.30
2018-09-29T06:48:09.569Z,4.80
2018-09-29T06:52:52.664Z,3.63
2018-09-29T06:57:35.483Z,5.53
2018-09-29T07:02:18.469Z,5.50
2018-09-29T07:07:03.333Z,5.80
2018-09-29T07:11:47.150Z,4.30
2018-09-29T07:16:30.158Z,3.60
2018-09-29T07:21:13.036Z,3.87
2018-09-29T07:25:56.993Z,3.13
2018-09-29T07:30:39.850Z,4.00
2018-09-29T07:35:22.697Z,2.80
2018-09-29T07:40:05.829Z,3.07
2018-09-29T07:44:48.710Z,3.23
2018-09-29T07:49:31.571Z,4.87
2018-09-29T07:54:14.557Z,3.80
2018-09-29T07:58:57.699Z,3.40
2018-09-29T08:03:40.777Z,3.73
2018-09-29T08:08:23.616Z,4.97
2018-09-29T08:13:06.604Z,3.93
2018-09-29T08:17:49.426Z,3.27
2018-09-29T08:22:32.318Z,3.87
2018-09-29T08:27:15.188Z,2.73
2018-09-29T08:31:58.078Z,3.40
2018-09-29T08:36:40.970Z,4.03
2018-09-29T08:41:23.813Z,3.57
2018-09-29T08:46:08.674Z,5.60
2018-09-29T08:50:51.502Z,3.73
2018-09-29T08:55:34.626Z,23.77
2018-09-29T09:00:17.434Z,14.27
2018-09-29T09:05:01.329Z,9.83
2018-09-29T09:09:44.136Z,2.57
2018-09-29T09:14:27.093Z,3.03
2018-09-29T09:19:09.953Z,2.63
2018-09-29T09:23:53.293Z,2.53
2018-09-29T09:28:36.899Z,2.30
2018-09-29T09:33:19.918Z,2.37
2018-09-29T09:38:02.781Z,1.80
2018-09-29T09:42:46.739Z,2.10
2018-09-29T09:47:29.590Z,2.00
2018-09-29T09:52:12.445Z,1.82
2018-09-29T09:56:55.305Z,2.07
2018-09-29T10:01:43.649Z,2.37
2018-09-29T10:06:26.585Z,2.30
2018-09-29T10:11:09.399Z,2.70
2018-09-29T10:15:52.307Z,1.80
2018-09-29T10:20:35.125Z,2.23
2018-09-29T10:25:18.145Z,2.70
2018-09-29T10:30:00.987Z,3.13
2018-09-29T10:34:44.066Z,13.17
2018-09-29T10:39:26.930Z,5.13
2018-09-29T10:44:11.083Z,2.13
2018-09-29T10:48:53.975Z,2.43
2018-09-29T10:53:36.974Z,2.20
2018-09-29T10:58:19.866Z,2.07
2018-09-29T11:03:02.910Z,2.23
2018-09-29T11:07:45.795Z,2.27
2018-09-29T11:12:28.897Z,2.17
2018-09-29T11:17:11.714Z,2.00
2018-09-29T11:21:54.562Z,2.33
2018-09-29T11:26:39.614Z,1.83
2018-09-29T11:31:22.500Z,2.43
2018-09-29T11:36:06.378Z,2.40
2018-09-29T11:40:49.263Z,2.53
2018-09-29T11:45:33.256Z,2.30
2018-09-29T11:50:16.129Z,2.33
2018-09-29T11:54:59.197Z,2.97
2018-09-29T11:59:42.052Z,1.90
2018-09-29T12:04:25.445Z,2.37
2018-09-29T12:09:10.846Z,2.43
2018-09-29T12:13:53.793Z,2.97
2018-09-29T12:18:36.624Z,3.00
2018-09-29T12:23:19.603Z,2.30
2018-09-29T12:28:02.512Z,2.40
2018-09-29T12:32:45.561Z,2.47
2018-09-29T12:37:28.473Z,2.90
2018-09-29T12:42:12.430Z,2.50
2018-09-29T12:46:55.294Z,2.47
2018-09-29T12:51:38.232Z,2.30
2018-09-29T12:56:23.112Z,2.80
2018-09-29T13:01:05.954Z,2.83
2018-09-29T13:05:49.910Z,2.70
2018-09-29T13:10:32.759Z,2.93
2018-09-29T13:15:15.815Z,3.20
2018-09-29T13:19:58.686Z,2.60
2018-09-29T13:24:41.624Z,2.37
2018-09-29T13:29:24.533Z,2.80
2018-09-29T13:34:07.495Z,2.50
2018-09-29T13:38:50.421Z,2.70
2018-09-29T13:43:33.421Z,2.90
2018-09-29T13:48:18.703Z,2.90
2018-09-29T13:53:01.794Z,2.63
2018-09-29T13:57:44.650Z,3.17
2018-09-29T14:02:30.496Z,2.67
2018-09-29T14:07:21.100Z,2.50
2018-09-29T14:12:04.278Z,2.73
2018-09-29T14:16:47.106Z,2.87
2018-09-29T14:21:30.330Z,4.00
2018-09-29T14:26:13.234Z,3.90
2018-09-29T14:30:57.050Z,3.60
2018-09-29T14:35:40.443Z,3.70
2018-09-29T14:40:23.270Z,4.27
2018-09-29T14:45:06.359Z,4.07
2018-09-29T14:49:49.231Z,4.37
2018-09-29T14:54:32.348Z,4.47
2018-09-29T14:59:15.219Z,3.60
2018-09-29T15:03:58.374Z,4.47
2018-09-29T15:08:41.314Z,8.67
2018-09-29T15:13:25.447Z,4.30
2018-09-29T15:18:08.303Z,4.20
2018-09-29T15:22:51.360Z,5.57
2018-09-29T15:27:34.187Z,9.00
2018-09-29T15:32:18.231Z,7.60
2018-09-29T15:37:01.112Z,4.67
2018-09-29T15:41:44.256Z,4.07
2018-09-29T15:46:28.213Z,4.93
2018-09-29T15:51:11.137Z,5.17
2018-09-29T15:55:55.175Z,5.17
2018-09-29T16:00:38.254Z,5.53
2018-09-29T16:05:23.250Z,6.00
2018-09-29T16:10:06.188Z,4.20
2018-09-29T16:14:49.259Z,5.30
2018-09-29T16:19:32.195Z,5.77
2018-09-29T16:24:15.335Z,4.73
2018-09-29T16:28:58.549Z,6.70
2018-09-29T16:33:41.655Z,6.90
2018-09-29T16:38:24.989Z,9.60
2018-09-29T16:43:07.859Z,10.07
2018-09-29T16:47:51.682Z,8.03
2018-09-29T16:52:34.763Z,7.97
2018-09-29T16:57:17.814Z,8.33
2018-09-29T17:02:00.923Z,6.47
2018-09-29T17:06:43.806Z,6.73
2018-09-29T17:11:27.707Z,6.57
2018-09-29T17:16:10.608Z,6.57
2018-09-29T17:20:53.510Z,6.17
2018-09-29T17:25:37.750Z,5.40
2018-09-29T17:30:21.814Z,5.50
2018-09-29T17:35:12.207Z,5.60
2018-09-29T17:39:55.136Z,5.17
2018-09-29T17:44:38.280Z,5.33
2018-09-29T17:49:21.185Z,5.03
2018-09-29T17:54:04.992Z,5.77
2018-09-29T17:58:48.431Z,5.33
2018-09-29T18:03:31.483Z,5.00
2018-09-29T18:08:14.975Z,4.80
2018-09-29T18:12:59.024Z,4.70
2018-09-29T18:17:41.936Z,4.70
2018-09-29T18:22:25.282Z,4.67
2018-09-29T18:32:09.272Z,4.83
2018-09-29T18:36:52.135Z,4.83
2018-09-29T18:41:35.434Z,5.20
2018-09-29T18:46:18.366Z,5.63
2018-09-29T18:51:02.343Z,4.27
2018-09-29T18:55:45.256Z,6.10
2018-09-29T19:00:28.122Z,4.20
2018-09-29T19:05:11.242Z,4.67
2018-09-29T19:10:10.638Z,4.87
2018-09-29T19:14:55.689Z,4.97
2018-09-29T19:19:38.571Z,5.50
2018-09-29T19:24:22.712Z,5.63
2018-09-29T19:29:06.547Z,5.47
2018-09-29T19:33:50.494Z,5.47
2018-09-29T19:38:33.892Z,6.33
2018-09-29T19:43:17.490Z,4.50
2018-09-29T19:48:00.550Z,4.90
2018-09-29T19:52:43.631Z,4.53
2018-09-29T19:57:26.522Z,5.13
2018-09-29T20:02:09.606Z,4.40
2018-09-29T20:06:52.463Z,5.30
2018-09-29T20:11:35.402Z,5.10
2018-09-29T20:16:18.299Z,5.17
2018-09-29T20:21:01.414Z,4.70
2018-09-29T20:25:44.309Z,4.97
2018-09-29T20:30:27.246Z,4.77
2018-09-29T20:35:10.250Z,5.63
2018-09-29T20:39:53.111Z,5.80
2018-09-29T20:44:36.020Z,5.10
2018-09-29T20:49:18.991Z,5.00
2018-09-29T20:54:02.077Z,5.00
2018-09-29T20:58:44.957Z,5.10
2018-09-29T21:03:27.827Z,5.20
2018-09-29T21:08:10.699Z,6.13
2018-09-29T21:12:53.593Z,6.17
2018-09-29T21:17:36.466Z,6.40
2018-09-29T21:22:19.422Z,5.63
2018-09-29T21:27:02.257Z,5.70
2018-09-29T21:31:46.151Z,4.83
2018-09-29T21:36:29.093Z,5.67
2018-09-29T21:41:12.178Z,5.87
2018-09-29T21:45:55.041Z,5.63
2018-09-29T21:50:38.969Z,5.77
2018-09-29T21:55:21.841Z,6.33
2018-09-29T22:00:04.978Z,6.90
2018-09-29T22:04:47.860Z,6.70
2018-09-29T22:09:30.755Z,7.37
2018-09-29T22:14:13.638Z,5.67
2018-09-29T22:18:56.553Z,5.63
2018-09-29T22:23:39.790Z,4.90
2018-09-29T22:28:22.630Z,5.00
2018-09-29T22:33:06.848Z,5.33
2018-09-29T22:37:50.011Z,4.80
2018-09-29T22:42:33.392Z,5.13
2018-09-29T22:47:16.245Z,5.47
2018-09-29T22:51:59.234Z,5.77
2018-09-29T22:56:42.095Z,6.10
2018-09-29T23:01:26.077Z,5.63
2018-09-29T23:06:08.906Z,5.17
2018-09-29T23:10:52.894Z,5.13
2018-09-29T23:15:35.742Z,4.83
2018-09-29T23:20:19.663Z,4.60
2018-09-29T23:25:02.498Z,4.53
2018-09-29T23:29:45.382Z,4.40
2018-09-29T23:34:29.279Z,3.87
2018-09-29T23:39:12.133Z,3.73
2018-09-29T23:43:55.049Z,3.70
2018-09-29T23:48:37.890Z,3.90
2018-09-29T23:53:24.689Z,3.60
2018-09-29T23:58:07.555Z,3.50
